sensor_id;sensor_type;location;lat;lon;timestamp;pressure;altitude;pressure_sealevel;temperature;humidity
56876;BME280;42622;49.972;8.452;2023-04-26T00:01:20;100846.56;;;1.34;100.00
56876;BME280;42622;49.972;8.452;2023-04-26T00:03:47;100840.50;;;1.33;100.00
56876;BME280;42622;49.972;8.452;2023-04-26T00:06:12;100847.50;;;1.31;100.00
56876;BME280;42622;49.972;8.452;2023-04-26T00:08:39;100848.44;;;1.27;100.00
56876;BME280;42622;49.972;8.452;2023-04-26T00:11:05;100842.41;;;1.25;100.00
56876;BME280;42622;49.972;8.452;2023-04-26T00:13:31;100842.41;;;1.25;100.00
56876;BME280;42622;49.972;8.452;2023-04-26T00:15:56;100847.66;;;1.24;100.00
56876;BME280;42622;49.972;8.452;2023-04-26T00:18:22;100846.84;;;1.20;100.00
56876;BME280;42622;49.972;8.452;2023-04-26T00:20:48;100849.56;;;1.17;100.00
56876;BME280;42622;49.972;8.452;2023-04-26T00:23:13;100848.72;;;1.15;100.00
56876;BME280;42622;49.972;8.452;2023-04-26T00:25:39;100855.75;;;1.11;100.00
56876;BME280;42622;49.972;8.452;2023-04-26T00:28:05;100860.09;;;1.11;100.00
56876;BME280;42622;49.972;8.452;2023-04-26T00:30:31;100856.59;;;1.12;100.00
56876;BME280;42622;49.972;8.452;2023-04-26T00:32:58;100856.53;;;1.15;100.00
56876;BME280;42622;49.972;8.452;2023-04-26T00:35:24;100854.78;;;1.17;100.00
56876;BME280;42622;49.972;8.452;2023-04-26T00:37:50;100854.72;;;1.18;100.00
56876;BME280;42622;49.972;8.452;2023-04-26T00:40:16;100855.63;;;1.17;100.00
56876;BME280;42622;49.972;8.452;2023-04-26T00:42:42;100848.69;;;1.16;100.00
56876;BME280;42622;49.972;8.452;2023-04-26T00:45:08;100841.75;;;1.15;100.00
56876;BME280;42622;49.972;8.452;2023-04-26T00:47:34;100855.69;;;1.14;100.00
56876;BME280;42622;49.972;8.452;2023-04-26T00:50:01;100845.28;;;1.13;100.00
56876;BME280;42622;49.972;8.452;2023-04-26T00:52:26;100858.25;;;1.16;100.00
56876;BME280;42622;49.972;8.452;2023-04-26T00:54:53;100852.13;;;1.18;100.00
56876;BME280;42622;49.972;8.452;2023-04-26T00:57:21;100849.41;;;1.23;100.00
56876;BME280;42622;49.972;8.452;2023-04-26T00:59:46;100849.38;;;1.25;100.00
56876;BME280;42622;49.972;8.452;2023-04-26T01:02:12;100849.34;;;1.26;100.00
56876;BME280;42622;49.972;8.452;2023-04-26T01:04:39;100850.16;;;1.28;100.00
56876;BME280;42622;49.972;8.452;2023-04-26T01:07:06;100849.25;;;1.29;100.00
56876;BME280;42622;49.972;8.452;2023-04-26T01:09:32;100848.41;;;1.29;100.00
56876;BME280;42622;49.972;8.452;2023-04-26T01:11:59;100845.81;;;1.29;100.00
56876;BME280;42622;49.972;8.452;2023-04-26T01:14:28;100847.63;;;1.25;100.00
56876;BME280;42622;49.972;8.452;2023-04-26T01:16:56;100845.13;;;1.21;100.00
56876;BME280;42622;49.972;8.452;2023-04-26T01:19:22;100841.66;;;1.20;100.00
56876;BME280;42622;49.972;8.452;2023-04-26T01:21:47;100851.25;;;1.18;100.00
56876;BME280;42622;49.972;8.452;2023-04-26T01:24:13;100837.47;;;1.13;100.00
56876;BME280;42622;49.972;8.452;2023-04-26T01:26:40;100849.69;;;1.11;100.00
56876;BME280;42622;49.972;8.452;2023-04-26T01:29:17;100840.19;;;1.08;100.00
56876;BME280;42622;49.972;8.452;2023-04-26T01:31:46;100840.25;;;1.07;100.00
56876;BME280;42622;49.972;8.452;2023-04-26T01:34:13;100840.31;;;1.04;100.00
56876;BME280;42622;49.972;8.452;2023-04-26T01:36:39;100849.06;;;1.00;100.00
56876;BME280;42622;49.972;8.452;2023-04-26T01:39:05;100838.75;;;0.95;100.00
56876;BME280;42622;49.972;8.452;2023-04-26T01:41:32;100837.09;;;0.92;100.00
56876;BME280;42622;49.972;8.452;2023-04-26T01:43:58;100839.75;;;0.89;100.00
56876;BME280;42622;49.972;8.452;2023-04-26T01:46:25;100844.09;;;0.87;100.00
56876;BME280;42622;49.972;8.452;2023-04-26T01:48:50;100846.72;;;0.87;100.00
56876;BME280;42622;49.972;8.452;2023-04-26T01:51:16;100841.50;;;0.87;100.00
56876;BME280;42622;49.972;8.452;2023-04-26T01:53:42;100846.75;;;0.86;100.00
56876;BME280;42622;49.972;8.452;2023-04-26T01:56:09;100843.31;;;0.85;100.00
56876;BME280;42622;49.972;8.452;2023-04-26T01:58:34;100840.69;;;0.85;100.00
56876;BME280;42622;49.972;8.452;2023-04-26T02:01:07;100842.38;;;0.88;100.00
56876;BME280;42622;49.972;8.452;2023-04-26T02:03:33;100853.66;;;0.88;100.00
56876;BME280;42622;49.972;8.452;2023-04-26T02:05:59;100851.06;;;0.87;100.00
56876;BME280;42622;49.972;8.452;2023-04-26T02:08:25;100846.75;;;0.86;100.00
56876;BME280;42622;49.972;8.452;2023-04-26T02:10:50;100844.94;;;0.89;100.00
56876;BME280;42622;49.972;8.452;2023-04-26T02:13:16;100850.88;;;0.96;100.00
56876;BME280;42622;49.972;8.452;2023-04-26T02:15:46;100849.75;;;1.08;100.00
56876;BME280;42622;49.972;8.452;2023-04-26T02:18:12;100851.31;;;1.15;100.00
56876;BME280;42622;49.972;8.452;2023-04-26T02:20:42;100849.47;;;1.20;100.00
56876;BME280;42622;49.972;8.452;2023-04-26T02:23:09;100851.09;;;1.26;100.00
56876;BME280;42622;49.972;8.452;2023-04-26T02:25:36;100852.72;;;1.31;100.00
56876;BME280;42622;49.972;8.452;2023-04-26T02:28:04;100856.19;;;1.30;100.00
56876;BME280;42622;49.972;8.452;2023-04-26T02:30:30;100853.63;;;1.29;100.00
56876;BME280;42622;49.972;8.452;2023-04-26T02:32:57;100852.06;;;1.22;100.00
56876;BME280;42622;49.972;8.452;2023-04-26T02:35:23;100854.84;;;1.14;100.00
56876;BME280;42622;49.972;8.452;2023-04-26T02:37:49;100850.66;;;1.05;100.00
56876;BME280;42622;49.972;8.452;2023-04-26T02:40:19;100853.44;;;0.98;100.00
56876;BME280;42622;49.972;8.452;2023-04-26T02:42:47;100855.34;;;0.89;100.00
56876;BME280;42622;49.972;8.452;2023-04-26T02:45:13;100852.03;;;0.81;100.00
56876;BME280;42622;49.972;8.452;2023-04-26T02:47:38;100853.03;;;0.76;100.00
56876;BME280;42622;49.972;8.452;2023-04-26T02:50:07;100854.97;;;0.66;100.00
56876;BME280;42622;49.972;8.452;2023-04-26T02:52:34;100854.34;;;0.55;100.00
56876;BME280;42622;49.972;8.452;2023-04-26T02:55:02;100850.19;;;0.46;100.00
56876;BME280;42622;49.972;8.452;2023-04-26T02:57:31;100846.84;;;0.38;100.00
56876;BME280;42622;49.972;8.452;2023-04-26T02:59:58;100841.75;;;0.33;100.00
56876;BME280;42622;49.972;8.452;2023-04-26T03:02:24;100849.66;;;0.27;100.00
56876;BME280;42622;49.972;8.452;2023-04-26T03:04:50;100851.50;;;0.20;100.00
56876;BME280;42622;49.972;8.452;2023-04-26T03:07:16;100847.34;;;0.12;100.00
56876;BME280;42622;49.972;8.452;2023-04-26T03:09:42;100843.09;;;0.06;100.00
56876;BME280;42622;49.972;8.452;2023-04-26T03:12:08;100839.75;;;-0.01;100.00
56876;BME280;42622;49.972;8.452;2023-04-26T03:14:34;100845.06;;;-0.07;100.00
56876;BME280;42622;49.972;8.452;2023-04-26T03:17:01;100848.53;;;-0.08;100.00
56876;BME280;42622;49.972;8.452;2023-04-26T03:19:27;100839.09;;;-0.12;100.00
56876;BME280;42622;49.972;8.452;2023-04-26T03:21:55;100846.97;;;-0.18;100.00
56876;BME280;42622;49.972;8.452;2023-04-26T03:24:21;100845.31;;;-0.22;100.00
56876;BME280;42622;49.972;8.452;2023-04-26T03:26:47;100835.06;;;-0.28;100.00
56876;BME280;42622;49.972;8.452;2023-04-26T03:29:13;100839.50;;;-0.36;100.00
56876;BME280;42622;49.972;8.452;2023-04-26T03:31:39;100843.06;;;-0.43;100.00
56876;BME280;42622;49.972;8.452;2023-04-26T03:34:04;100843.19;;;-0.51;100.00
56876;BME280;42622;49.972;8.452;2023-04-26T03:36:32;100838.00;;;-0.51;100.00
56876;BME280;42622;49.972;8.452;2023-04-26T03:38:58;100845.84;;;-0.53;100.00
56876;BME280;42622;49.972;8.452;2023-04-26T03:41:23;100837.25;;;-0.56;100.00
56876;BME280;42622;49.972;8.452;2023-04-26T03:43:49;100843.41;;;-0.63;100.00
56876;BME280;42622;49.972;8.452;2023-04-26T03:46:15;100856.47;;;-0.71;100.00
56876;BME280;42622;49.972;8.452;2023-04-26T03:48:42;100856.59;;;-0.77;100.00
56876;BME280;42622;49.972;8.452;2023-04-26T03:51:07;100850.63;;;-0.84;100.00
56876;BME280;42622;49.972;8.452;2023-04-26T03:53:33;100857.56;;;-0.86;100.00
56876;BME280;42622;49.972;8.452;2023-04-26T03:55:59;100855.94;;;-0.93;100.00
56876;BME280;42622;49.972;8.452;2023-04-26T03:58:25;100850.78;;;-0.96;100.00
56876;BME280;42622;49.972;8.452;2023-04-26T04:00:51;100849.97;;;-0.98;100.00
56876;BME280;42622;49.972;8.452;2023-04-26T04:03:20;100847.38;;;-1.00;100.00
56876;BME280;42622;49.972;8.452;2023-04-26T04:05:46;100849.13;;;-1.02;100.00
56876;BME280;42622;49.972;8.452;2023-04-26T04:08:12;100849.13;;;-1.03;100.00
56876;BME280;42622;49.972;8.452;2023-04-26T04:10:37;100844.88;;;-1.06;100.00
56876;BME280;42622;49.972;8.452;2023-04-26T04:13:03;100849.22;;;-1.08;100.00
56876;BME280;42622;49.972;8.452;2023-04-26T04:15:29;100851.00;;;-1.11;100.00
56876;BME280;42622;49.972;8.452;2023-04-26T04:17:55;100850.13;;;-1.13;100.00
56876;BME280;42622;49.972;8.452;2023-04-26T04:20:20;100853.63;;;-1.14;100.00
56876;BME280;42622;49.972;8.452;2023-04-26T04:22:47;100850.16;;;-1.15;100.00
56876;BME280;42622;49.972;8.452;2023-04-26T04:25:12;100849.31;;;-1.15;100.00
56876;BME280;42622;49.972;8.452;2023-04-26T04:27:39;100844.13;;;-1.15;100.00
56876;BME280;42622;49.972;8.452;2023-04-26T04:30:10;100851.88;;;-1.14;100.00
56876;BME280;42622;49.972;8.452;2023-04-26T04:32:36;100845.81;;;-1.11;100.00
56876;BME280;42622;49.972;8.452;2023-04-26T04:35:07;100856.13;;;-1.08;100.00
56876;BME280;42622;49.972;8.452;2023-04-26T04:37:33;100863.00;;;-1.04;100.00
56876;BME280;42622;49.972;8.452;2023-04-26T04:40:00;100863.84;;;-1.04;100.00
56876;BME280;42622;49.972;8.452;2023-04-26T04:42:25;100870.81;;;-1.06;100.00
56876;BME280;42622;49.972;8.452;2023-04-26T04:44:54;100871.63;;;-1.02;100.00
56876;BME280;42622;49.972;8.452;2023-04-26T04:47:20;100876.78;;;-1.01;100.00
56876;BME280;42622;49.972;8.452;2023-04-26T04:49:46;100883.66;;;-0.95;100.00
56876;BME280;42622;49.972;8.452;2023-04-26T04:52:12;100888.78;;;-0.92;100.00
56876;BME280;42622;49.972;8.452;2023-04-26T04:54:38;100887.06;;;-0.93;100.00
56876;BME280;42622;49.972;8.452;2023-04-26T04:57:04;100894.84;;;-0.91;100.00
56876;BME280;42622;49.972;8.452;2023-04-26T04:59:30;100896.53;;;-0.87;100.00
56876;BME280;42622;49.972;8.452;2023-04-26T05:01:57;100894.72;;;-0.82;100.00
56876;BME280;42622;49.972;8.452;2023-04-26T05:04:23;100894.63;;;-0.76;100.00
56876;BME280;42622;49.972;8.452;2023-04-26T05:06:49;100901.41;;;-0.66;100.00
56876;BME280;42622;49.972;8.452;2023-04-26T05:09:15;100897.84;;;-0.59;100.00
56876;BME280;42622;49.972;8.452;2023-04-26T05:11:41;100895.19;;;-0.53;100.00
56876;BME280;42622;49.972;8.452;2023-04-26T05:14:07;100899.41;;;-0.45;100.00
56876;BME280;42622;49.972;8.452;2023-04-26T05:16:33;100897.50;;;-0.34;100.00
56876;BME280;42622;49.972;8.452;2023-04-26T05:18:59;100906.88;;;-0.26;100.00
56876;BME280;42622;49.972;8.452;2023-04-26T05:21:24;100907.63;;;-0.17;100.00
56876;BME280;42622;49.972;8.452;2023-04-26T05:23:50;100904.03;;;-0.10;100.00
56876;BME280;42622;49.972;8.452;2023-04-26T05:26:16;100897.84;;;-0.03;100.00
56876;BME280;42622;49.972;8.452;2023-04-26T05:28:42;100905.53;;;0.05;100.00
56876;BME280;42622;49.972;8.452;2023-04-26T05:31:10;100911.38;;;0.16;100.00
56876;BME280;42622;49.972;8.452;2023-04-26T05:33:36;100910.34;;;0.26;100.00
56876;BME280;42622;49.972;8.452;2023-04-26T05:36:08;100910.97;;;0.40;100.00
56876;BME280;42622;49.972;8.452;2023-04-26T05:38:35;100912.41;;;0.57;100.00
56876;BME280;42622;49.972;8.452;2023-04-26T05:41:02;100914.66;;;0.74;100.00
56876;BME280;42622;49.972;8.452;2023-04-26T05:43:29;100916.91;;;0.92;100.00
56876;BME280;42622;49.972;8.452;2023-04-26T05:45:55;100917.38;;;1.11;100.00
56876;BME280;42622;49.972;8.452;2023-04-26T05:48:23;100922.25;;;1.26;100.00
56876;BME280;42622;49.972;8.452;2023-04-26T05:50:50;100915.81;;;1.42;100.00
56876;BME280;42622;49.972;8.452;2023-04-26T05:53:18;100918.00;;;1.61;100.00
56876;BME280;42622;49.972;8.452;2023-04-26T05:55:44;100924.34;;;1.86;100.00
56876;BME280;42622;49.972;8.452;2023-04-26T05:58:10;100925.38;;;2.15;100.00
56876;BME280;42622;49.972;8.452;2023-04-26T06:00:37;100926.50;;;2.41;100.00
56876;BME280;42622;49.972;8.452;2023-04-26T06:03:05;100930.00;;;2.72;100.00
56876;BME280;42622;49.972;8.452;2023-04-26T06:05:31;100936.09;;;3.02;100.00
56876;BME280;42622;49.972;8.452;2023-04-26T06:07:57;100940.16;;;3.42;100.00
56876;BME280;42622;49.972;8.452;2023-04-26T06:10:24;100934.56;;;3.82;100.00
56876;BME280;42622;49.972;8.452;2023-04-26T06:12:50;100929.03;;;4.18;100.00
56876;BME280;42622;49.972;8.452;2023-04-26T06:15:16;100937.50;;;4.51;100.00
56876;BME280;42622;49.972;8.452;2023-04-26T06:17:41;100939.59;;;4.92;100.00
56876;BME280;42622;49.972;8.452;2023-04-26T06:20:09;100939.91;;;5.30;100.00
56876;BME280;42622;49.972;8.452;2023-04-26T06:22:37;100942.03;;;5.65;100.00
56876;BME280;42622;49.972;8.452;2023-04-26T06:25:06;100943.66;;;6.13;100.00
56876;BME280;42622;49.972;8.452;2023-04-26T06:27:33;100939.22;;;6.77;100.00
56876;BME280;42622;49.972;8.452;2023-04-26T06:29:59;100947.53;;;7.63;100.00
56876;BME280;42622;49.972;8.452;2023-04-26T06:32:26;100940.00;;;8.28;100.00
56876;BME280;42622;49.972;8.452;2023-04-26T06:34:52;100950.41;;;8.66;100.00
56876;BME280;42622;49.972;8.452;2023-04-26T06:37:18;100957.16;;;9.05;100.00
56876;BME280;42622;49.972;8.452;2023-04-26T06:39:43;100956.03;;;9.42;100.00
56876;BME280;42622;49.972;8.452;2023-04-26T06:42:09;100954.19;;;9.76;100.00
56876;BME280;42622;49.972;8.452;2023-04-26T06:44:35;100957.91;;;10.03;100.00
56876;BME280;42622;49.972;8.452;2023-04-26T06:47:01;100953.72;;;10.45;100.00
56876;BME280;42622;49.972;8.452;2023-04-26T06:49:27;100951.03;;;10.61;100.00
56876;BME280;42622;49.972;8.452;2023-04-26T06:51:52;100949.47;;;11.01;100.00
56876;BME280;42622;49.972;8.452;2023-04-26T06:54:18;100941.88;;;11.53;100.00
56876;BME280;42622;49.972;8.452;2023-04-26T06:56:45;100942.53;;;11.83;100.00
56876;BME280;42622;49.972;8.452;2023-04-26T06:59:12;100948.44;;;11.88;100.00
56876;BME280;42622;49.972;8.452;2023-04-26T07:01:39;100947.44;;;12.04;100.00
56876;BME280;42622;49.972;8.452;2023-04-26T07:04:05;100952.13;;;12.13;100.00
56876;BME280;42622;49.972;8.452;2023-04-26T07:06:35;100954.84;;;11.99;100.00
56876;BME280;42622;49.972;8.452;2023-04-26T07:09:02;100958.84;;;11.91;100.00
56876;BME280;42622;49.972;8.452;2023-04-26T07:11:30;100949.94;;;11.92;100.00
56876;BME280;42622;49.972;8.452;2023-04-26T07:13:56;100960.69;;;12.04;100.00
56876;BME280;42622;49.972;8.452;2023-04-26T07:16:23;100957.53;;;11.84;96.81
56876;BME280;42622;49.972;8.452;2023-04-26T07:18:49;100953.94;;;11.71;96.72
56876;BME280;42622;49.972;8.452;2023-04-26T07:21:15;100959.22;;;11.85;95.10
56876;BME280;42622;49.972;8.452;2023-04-26T07:23:41;100960.16;;;11.99;94.36
56876;BME280;42622;49.972;8.452;2023-04-26T07:26:10;100952.00;;;12.41;90.88
56876;BME280;42622;49.972;8.452;2023-04-26T07:28:36;100948.56;;;12.79;88.30
56876;BME280;42622;49.972;8.452;2023-04-26T07:31:01;100942.28;;;13.06;84.85
56876;BME280;42622;49.972;8.452;2023-04-26T07:33:27;100944.59;;;13.10;82.59
56876;BME280;42622;49.972;8.452;2023-04-26T07:35:55;100942.50;;;12.90;81.48
56876;BME280;42622;49.972;8.452;2023-04-26T07:38:23;100940.81;;;12.76;82.07
56876;BME280;42622;49.972;8.452;2023-04-26T07:40:50;100936.72;;;12.58;80.20
56876;BME280;42622;49.972;8.452;2023-04-26T07:43:20;100948.81;;;12.49;78.68
56876;BME280;42622;49.972;8.452;2023-04-26T07:45:46;100945.69;;;11.90;79.01
56876;BME280;42622;49.972;8.452;2023-04-26T07:48:12;100938.13;;;11.42;79.86
56876;BME280;42622;49.972;8.452;2023-04-26T07:50:38;100937.53;;;11.37;81.65
56876;BME280;42622;49.972;8.452;2023-04-26T07:53:03;100943.31;;;11.44;80.77
56876;BME280;42622;49.972;8.452;2023-04-26T07:55:29;100944.56;;;11.10;79.47
56876;BME280;42622;49.972;8.452;2023-04-26T07:57:55;100940.56;;;10.88;81.45
56876;BME280;42622;49.972;8.452;2023-04-26T08:00:21;100944.84;;;10.91;79.52
56876;BME280;42622;49.972;8.452;2023-04-26T08:02:48;100938.50;;;11.22;81.46
56876;BME280;42622;49.972;8.452;2023-04-26T08:05:15;100932.19;;;11.66;80.81
56876;BME280;42622;49.972;8.452;2023-04-26T08:07:42;100943.03;;;12.17;78.85
56876;BME280;42622;49.972;8.452;2023-04-26T08:10:10;100937.19;;;12.52;76.81
56876;BME280;42622;49.972;8.452;2023-04-26T08:12:37;100947.78;;;12.52;75.08
56876;BME280;42622;49.972;8.452;2023-04-26T08:15:04;100940.44;;;12.42;74.09
56876;BME280;42622;49.972;8.452;2023-04-26T08:17:32;100944.69;;;12.58;73.60
56876;BME280;42622;49.972;8.452;2023-04-26T08:19:59;100942.28;;;12.55;72.12
56876;BME280;42622;49.972;8.452;2023-04-26T08:22:25;100944.56;;;12.47;71.45
56876;BME280;42622;49.972;8.452;2023-04-26T08:24:54;100938.13;;;12.11;69.33
56876;BME280;42622;49.972;8.452;2023-04-26T08:27:22;100939.06;;;11.41;70.23
56876;BME280;42622;49.972;8.452;2023-04-26T08:29:47;100939.44;;;11.49;72.37
56876;BME280;42622;49.972;8.452;2023-04-26T08:32:14;100940.19;;;11.79;70.56
56876;BME280;42622;49.972;8.452;2023-04-26T08:34:40;100940.13;;;11.80;70.05
56876;BME280;42622;49.972;8.452;2023-04-26T08:37:06;100942.44;;;12.26;69.04
56876;BME280;42622;49.972;8.452;2023-04-26T08:39:33;100938.63;;;12.43;66.55
56876;BME280;42622;49.972;8.452;2023-04-26T08:42:05;100935.25;;;12.54;66.13
56876;BME280;42622;49.972;8.452;2023-04-26T08:44:44;100933.91;;;12.86;65.88
56876;BME280;42622;49.972;8.452;2023-04-26T08:47:39;100935.91;;;12.96;64.58
56876;BME280;42622;49.972;8.452;2023-04-26T08:50:22;100923.38;;;13.10;64.76
56876;BME280;42622;49.972;8.452;2023-04-26T08:52:51;100929.00;;;13.19;61.95
56876;BME280;42622;49.972;8.452;2023-04-26T08:55:19;100922.72;;;13.07;61.26
56876;BME280;42622;49.972;8.452;2023-04-26T08:57:47;100921.28;;;12.77;60.48
56876;BME280;42622;49.972;8.452;2023-04-26T09:00:17;100918.69;;;12.50;61.47
56876;BME280;42622;49.972;8.452;2023-04-26T09:02:49;100917.25;;;12.19;60.67
56876;BME280;42622;49.972;8.452;2023-04-26T09:05:20;100919.44;;;12.00;61.57
56876;BME280;42622;49.972;8.452;2023-04-26T09:07:49;100917.22;;;11.79;61.74
56876;BME280;42622;49.972;8.452;2023-04-26T09:10:20;100925.22;;;11.51;62.30
56876;BME280;42622;49.972;8.452;2023-04-26T09:12:51;100916.00;;;11.29;62.23
56876;BME280;42622;49.972;8.452;2023-04-26T09:15:22;100920.63;;;11.40;63.19
56876;BME280;42622;49.972;8.452;2023-04-26T09:17:49;100924.63;;;11.74;63.55
56876;BME280;42622;49.972;8.452;2023-04-26T09:20:25;100919.78;;;11.81;61.62
56876;BME280;42622;49.972;8.452;2023-04-26T09:23:13;100922.50;;;11.79;59.35
56876;BME280;42622;49.972;8.452;2023-04-26T09:25:41;100926.03;;;11.65;58.61
56876;BME280;42622;49.972;8.452;2023-04-26T09:28:27;100924.22;;;11.80;58.96
56876;BME280;42622;49.972;8.452;2023-04-26T09:30:54;100920.28;;;12.00;56.45
56876;BME280;42622;49.972;8.452;2023-04-26T09:33:19;100917.88;;;12.10;55.65
56876;BME280;42622;49.972;8.452;2023-04-26T09:35:45;100911.66;;;12.24;55.29
56876;BME280;42622;49.972;8.452;2023-04-26T09:38:16;100899.41;;;12.48;55.20
56876;BME280;42622;49.972;8.452;2023-04-26T09:40:46;100910.25;;;12.83;54.43
56876;BME280;42622;49.972;8.452;2023-04-26T09:43:19;100905.91;;;13.45;53.97
56876;BME280;42622;49.972;8.452;2023-04-26T09:45:55;100901.81;;;13.88;52.37
56876;BME280;42622;49.972;8.452;2023-04-26T09:48:29;100910.75;;;13.87;50.16
56876;BME280;42622;49.972;8.452;2023-04-26T09:50:58;100900.00;;;13.65;50.41
56876;BME280;42622;49.972;8.452;2023-04-26T09:53:39;100904.44;;;13.41;49.97
56876;BME280;42622;49.972;8.452;2023-04-26T09:56:11;100896.63;;;12.75;48.51
56876;BME280;42622;49.972;8.452;2023-04-26T10:01:24;100892.47;;;12.33;49.43
56876;BME280;42622;49.972;8.452;2023-04-26T10:03:59;100908.69;;;12.28;49.48
56876;BME280;42622;49.972;8.452;2023-04-26T10:06:27;100901.94;;;12.37;49.73
56876;BME280;42622;49.972;8.452;2023-04-26T10:08:53;100897.41;;;12.52;50.46
56876;BME280;42622;49.972;8.452;2023-04-26T10:11:21;100892.19;;;12.50;51.03
56876;BME280;42622;49.972;8.452;2023-04-26T10:13:50;100895.59;;;12.65;52.29
56876;BME280;42622;49.972;8.452;2023-04-26T10:16:16;100888.69;;;12.75;53.13
56876;BME280;42622;49.972;8.452;2023-04-26T10:18:42;100891.78;;;12.69;50.45
56876;BME280;42622;49.972;8.452;2023-04-26T10:21:26;100892.53;;;12.58;50.63
56876;BME280;42622;49.972;8.452;2023-04-26T10:24:00;100890.19;;;12.66;50.46
56876;BME280;42622;49.972;8.452;2023-04-26T10:26:52;100885.81;;;12.78;49.77
56876;BME280;42622;49.972;8.452;2023-04-26T10:29:23;100883.72;;;12.83;49.58
56876;BME280;42622;49.972;8.452;2023-04-26T10:34:31;100883.06;;;12.54;50.87
56876;BME280;42622;49.972;8.452;2023-04-26T10:39:37;100883.69;;;12.32;52.21
56876;BME280;42622;49.972;8.452;2023-04-26T10:42:25;100875.00;;;12.30;52.91
56876;BME280;42622;49.972;8.452;2023-04-26T10:44:54;100878.50;;;12.31;54.10
56876;BME280;42622;49.972;8.452;2023-04-26T10:50:02;100869.16;;;12.51;60.02
56876;BME280;42622;49.972;8.452;2023-04-26T10:52:30;100866.63;;;12.49;62.07
56876;BME280;42622;49.972;8.452;2023-04-26T10:54:57;100862.72;;;12.55;63.29
56876;BME280;42622;49.972;8.452;2023-04-26T10:58:00;100864.94;;;13.23;65.05
56876;BME280;42622;49.972;8.452;2023-04-26T11:00:28;100861.56;;;13.58;61.57
56876;BME280;42622;49.972;8.452;2023-04-26T11:03:02;100853.22;;;13.75;62.82
56876;BME280;42622;49.972;8.452;2023-04-26T11:05:46;100857.16;;;13.94;62.45
56876;BME280;42622;49.972;8.452;2023-04-26T11:08:36;100854.94;;;13.87;58.52
56876;BME280;42622;49.972;8.452;2023-04-26T11:11:10;100858.16;;;13.32;54.34
56876;BME280;42622;49.972;8.452;2023-04-26T11:13:42;100858.56;;;13.38;55.23
56876;BME280;42622;49.972;8.452;2023-04-26T11:16:13;100852.72;;;13.81;54.21
56876;BME280;42622;49.972;8.452;2023-04-26T11:18:46;100847.53;;;13.56;51.71
56876;BME280;42622;49.972;8.452;2023-04-26T11:21:13;100845.50;;;13.59;51.71
56876;BME280;42622;49.972;8.452;2023-04-26T11:23:52;100836.22;;;13.54;50.34
56876;BME280;42622;49.972;8.452;2023-04-26T11:26:18;100831.84;;;13.29;49.90
56876;BME280;42622;49.972;8.452;2023-04-26T11:28:44;100845.97;;;13.53;49.99
56876;BME280;42622;49.972;8.452;2023-04-26T11:31:10;100831.03;;;13.87;48.14
56876;BME280;42622;49.972;8.452;2023-04-26T11:33:39;100840.19;;;13.59;47.57
56876;BME280;42622;49.972;8.452;2023-04-26T11:36:06;100828.50;;;12.88;46.40
56876;BME280;42622;49.972;8.452;2023-04-26T11:38:32;100827.91;;;12.47;48.40
56876;BME280;42622;49.972;8.452;2023-04-26T11:41:03;100823.34;;;12.49;48.72
56876;BME280;42622;49.972;8.452;2023-04-26T11:43:36;100821.78;;;12.33;48.29
56876;BME280;42622;49.972;8.452;2023-04-26T11:46:05;100817.72;;;12.28;48.16
56876;BME280;42622;49.972;8.452;2023-04-26T11:48:35;100826.44;;;12.55;49.29
56876;BME280;42622;49.972;8.452;2023-04-26T11:51:03;100830.88;;;13.17;48.33
56876;BME280;42622;49.972;8.452;2023-04-26T11:53:40;100822.84;;;13.43;46.75
56876;BME280;42622;49.972;8.452;2023-04-26T11:56:19;100815.41;;;13.48;47.35
56876;BME280;42622;49.972;8.452;2023-04-26T11:58:48;100804.22;;;13.91;46.98
56876;BME280;42622;49.972;8.452;2023-04-26T12:01:27;100814.59;;;13.58;45.60
56876;BME280;42622;49.972;8.452;2023-04-26T12:03:57;100819.16;;;12.96;46.01
56876;BME280;42622;49.972;8.452;2023-04-26T12:06:45;100807.28;;;12.88;47.18
56876;BME280;42622;49.972;8.452;2023-04-26T12:09:12;100806.69;;;13.46;47.65
56876;BME280;42622;49.972;8.452;2023-04-26T12:11:39;100802.97;;;14.30;47.59
56876;BME280;42622;49.972;8.452;2023-04-26T12:14:05;100810.75;;;14.89;46.59
56876;BME280;42622;49.972;8.452;2023-04-26T12:16:35;100806.69;;;14.74;45.86
56876;BME280;42622;49.972;8.452;2023-04-26T12:19:06;100812.94;;;14.50;46.11
56876;BME280;42622;49.972;8.452;2023-04-26T12:21:43;100813.47;;;14.20;45.75
56876;BME280;42622;49.972;8.452;2023-04-26T12:24:29;100805.66;;;13.83;46.22
56876;BME280;42622;49.972;8.452;2023-04-26T12:27:04;100801.38;;;13.46;46.52
56876;BME280;42622;49.972;8.452;2023-04-26T12:29:32;100794.38;;;13.45;46.34
56876;BME280;42622;49.972;8.452;2023-04-26T12:31:59;100790.44;;;13.85;46.83
56876;BME280;42622;49.972;8.452;2023-04-26T12:34:25;100789.50;;;14.09;46.62
56876;BME280;42622;49.972;8.452;2023-04-26T12:36:51;100797.19;;;14.25;45.26
56876;BME280;42622;49.972;8.452;2023-04-26T12:39:18;100795.13;;;14.17;45.86
56876;BME280;42622;49.972;8.452;2023-04-26T12:41:44;100794.59;;;14.01;45.68
56876;BME280;42622;49.972;8.452;2023-04-26T12:44:13;100788.13;;;13.81;46.33
56876;BME280;42622;49.972;8.452;2023-04-26T12:46:39;100801.94;;;13.62;46.47
56876;BME280;42622;49.972;8.452;2023-04-26T12:49:05;100803.78;;;13.73;46.40
56876;BME280;42622;49.972;8.452;2023-04-26T12:51:31;100790.94;;;14.02;46.46
56876;BME280;42622;49.972;8.452;2023-04-26T12:53:58;100798.84;;;14.15;46.74
56876;BME280;42622;49.972;8.452;2023-04-26T12:56:28;100795.59;;;14.22;46.60
56876;BME280;42622;49.972;8.452;2023-04-26T12:58:54;100790.44;;;14.54;47.46
56876;BME280;42622;49.972;8.452;2023-04-26T13:01:20;100791.66;;;14.50;47.31
56876;BME280;42622;49.972;8.452;2023-04-26T13:03:45;100800.31;;;14.19;46.58